Minot, ND

12:23 PM CST on December 08, 2016 (GMT -0600)
Edgeview Estates | | Change Station

Elev 1752 ft 48.21 °N, 101.33 °W | Updated 5 seconds ago

Haze
Haze
0.3 °F
Feels Like -15 °F
N
9.0
Wind Variable Wind from North
Gusts 16.0 mph

Today
High -- | Low -- °F
--% Chance of Precip.
Yesterday
High -- | Low -- °F
Precip. -- in
Pressure 30.76 in
Visibility 3.0 miles
Clouds Few 100 ft
Scattered Clouds 1300 ft
Windchill -15 °F
Dew Point -6 °F
Humidity 73%
Rainfall 0.00 in
Snow Depth Not available.
8:23 AM 4:51 PM
Waxing Gibbous, 65% visible
METAR KMOT 081754Z 28013KT 3SM HZ FEW001 SCT013 M18/M21 A3062 RMK AO2 SLP417 60000 T11781211 11167 21189 50006
Pressure 30.76 in
Visibility 3.0 miles
Clouds Few 100 ft
Scattered Clouds 1300 ft
Windchill -15 °F
Dew Point -6 °F
Humidity 73%
Rainfall 0.00 in
Snow Depth Not available.
8:23 AM 4:51 PM
Waxing Gibbous, 65% visible
METAR KMOT 081754Z 28013KT 3SM HZ FEW001 SCT013 M18/M21 A3062 RMK AO2 SLP417 60000 T11781211 11167 21189 50006

10-Day Weather Forecast

Almanac

Astronomy

Dec. 08, 2016 Rise Set
Actual Time
Civil Twilight
Nautical Twilight
Astronomical Twilight
Moon
Length of Visible Light
Length of Day
Tomorrow will be .
, % of the Moon is Illuminated

Today's Extremes

State Highs State Lows

Community

WunderPhotos

Upload Photos

1,956,277 photos uploaded!

WunderBlog® & News

Nearby

Air Quality

  Air Quality AQ Index Pollutant
Not available.

Snow Depth

Station Depth Elevation

Earthquake Activity

City Distance Mag. Time & Date
Minimum magnitude displayed is 2.5.

Coastal Water Temperatures

Place Temperature

Stations

Nearby Weather Stations

Station Location Temp. Windchill Dew Point Humidity Wind Precip. Elev Updated Type
                   

Watches & Warnings

There are currently no watches in effect.